Terminal Aerodrome Forecast
Issued by NWS Louisville, KY

Home | Current Version | Previous Version | Text Only | Print | Product List | Glossary On
Versions: 1 2 3 4 5 6 7 8 9 10 11 12 13 14
000
FTUS43 KLMK 272300
TAFLEX
TAF
KLEX 272338Z 2800/2824 VRB03KT P6SM SCT040 BKN100
     FM280700 05003KT 4SM BR SKC
     FM281000 06003KT 2SM BR SKC
     FM281300 06005KT P6SM SCT040=

USA.gov is the U.S. government's official web portal to all federal, state and local government web resources and services.